createdAt,value
2023-05-15T00:00:10.637Z,5.93
2023-05-15T00:02:12.983Z,22.75
2023-05-15T00:04:14.514Z,9.50
2023-05-15T00:06:16.100Z,7.35
2023-05-15T00:08:17.583Z,7.18
2023-05-15T00:10:19.081Z,6.63
2023-05-15T00:12:20.879Z,6.47
2023-05-15T00:14:22.567Z,6.50
2023-05-15T00:16:24.590Z,6.82
2023-05-15T00:18:26.133Z,8.27
2023-05-15T00:20:27.623Z,13.95
2023-05-15T00:22:29.097Z,6.63
2023-05-15T00:24:30.612Z,7.10
2023-05-15T00:26:32.072Z,8.23
2023-05-15T00:28:33.574Z,8.05
2023-05-15T00:30:35.064Z,7.15
2023-05-15T00:32:36.556Z,7.53
2023-05-15T00:34:38.073Z,8.25
2023-05-15T00:36:39.603Z,7.28
2023-05-15T00:38:41.164Z,8.43
2023-05-15T00:40:44.047Z,7.53
2023-05-15T00:42:46.857Z,7.75
2023-05-15T00:44:48.812Z,8.13
2023-05-15T00:46:53.183Z,8.38
2023-05-15T00:48:56.262Z,7.95
2023-05-15T00:50:58.003Z,9.65
2023-05-15T00:53:00.849Z,8.13
2023-05-15T00:55:02.440Z,8.07
2023-05-15T00:57:06.523Z,8.82
2023-05-15T00:59:08.652Z,7.80
2023-05-15T01:01:11.105Z,8.50
2023-05-15T01:03:12.778Z,10.00
2023-05-15T01:05:14.432Z,8.18
2023-05-15T01:07:16.105Z,8.02
2023-05-15T01:09:19.214Z,8.48
2023-05-15T01:11:24.409Z,8.65
2023-05-15T01:13:25.933Z,9.18
2023-05-15T01:15:27.435Z,9.48
2023-05-15T01:17:29.722Z,10.73
2023-05-15T01:19:31.514Z,10.98
2023-05-15T01:21:38.822Z,11.13
2023-05-15T01:23:58.459Z,10.73
2023-05-15T01:26:33.673Z,10.73
2023-05-15T01:28:42.627Z,9.98
2023-05-15T01:30:45.591Z,8.85
2023-05-15T01:32:55.730Z,11.05
2023-05-15T01:35:11.830Z,9.40
2023-05-15T01:37:17.238Z,9.05
2023-05-15T01:39:23.190Z,13.90
2023-05-15T01:41:31.427Z,10.10
2023-05-15T01:43:35.837Z,9.93
2023-05-15T01:45:39.857Z,8.80
2023-05-15T01:47:46.300Z,9.75
2023-05-15T01:49:50.996Z,9.93
2023-05-15T01:51:59.545Z,9.48
2023-05-15T01:54:03.552Z,9.68
2023-05-15T01:56:08.106Z,11.02
2023-05-15T01:58:10.090Z,10.15
2023-05-15T02:00:12.667Z,10.98
2023-05-15T02:02:15.346Z,10.63
2023-05-15T02:04:18.893Z,11.18
2023-05-15T02:06:21.640Z,10.57
2023-05-15T02:08:25.714Z,10.68
2023-05-15T02:10:28.538Z,11.10
2023-05-15T02:12:31.823Z,10.32
2023-05-15T02:14:33.679Z,10.82
2023-05-15T02:16:35.776Z,10.75
2023-05-15T02:18:38.169Z,10.93
2023-05-15T02:20:39.716Z,11.15
2023-05-15T02:22:41.186Z,10.38
2023-05-15T02:24:42.681Z,10.15
2023-05-15T02:26:47.059Z,17.73
2023-05-15T02:29:18.701Z,9.75
2023-05-15T02:31:50.939Z,10.35
2023-05-15T02:34:06.091Z,14.18
2023-05-15T02:36:17.535Z,11.65
2023-05-15T02:38:31.290Z,13.77
2023-05-15T02:40:36.353Z,11.57
2023-05-15T02:42:38.942Z,11.80
2023-05-15T02:44:42.571Z,14.00
2023-05-15T02:46:44.553Z,11.80
2023-05-15T02:48:47.213Z,12.20
2023-05-15T02:50:48.809Z,12.02
2023-05-15T02:52:50.268Z,12.82
2023-05-15T02:54:51.913Z,12.02
2023-05-15T02:56:53.442Z,13.20
2023-05-15T02:58:55.138Z,14.90
2023-05-15T03:00:57.179Z,13.02
2023-05-15T03:02:59.079Z,12.95
2023-05-15T03:05:01.076Z,15.18
2023-05-15T03:07:03.009Z,12.98
2023-05-15T03:09:06.549Z,13.13
2023-05-15T03:11:08.398Z,15.07
2023-05-15T03:13:09.927Z,12.90
2023-05-15T03:15:11.513Z,13.75
2023-05-15T03:17:13.141Z,13.75
2023-05-15T03:19:14.938Z,15.00
2023-05-15T03:21:17.983Z,14.88
2023-05-15T03:23:19.833Z,13.98
2023-05-15T03:25:23.098Z,14.63
2023-05-15T03:27:25.030Z,14.07
2023-05-15T03:29:26.568Z,13.27
2023-05-15T03:31:28.283Z,13.18
2023-05-15T03:33:30.149Z,13.57
2023-05-15T03:35:32.542Z,13.60
2023-05-15T03:37:34.262Z,13.68
2023-05-15T03:39:36.147Z,15.35
2023-05-15T03:41:37.984Z,14.77
2023-05-15T03:43:39.621Z,17.05
2023-05-15T03:45:41.181Z,16.75
2023-05-15T03:47:43.032Z,15.85
2023-05-15T03:49:47.217Z,16.00
2023-05-15T03:51:48.988Z,15.68
2023-05-15T03:53:51.057Z,14.02
2023-05-15T03:55:52.711Z,16.60
2023-05-15T03:57:55.099Z,17.05
2023-05-15T03:59:57.120Z,16.38
2023-05-15T04:02:04.995Z,17.10
2023-05-15T04:04:07.475Z,20.77
2023-05-15T04:06:09.100Z,23.95
2023-05-15T04:08:12.614Z,21.58
2023-05-15T04:10:14.283Z,24.38
2023-05-15T04:12:16.163Z,30.42
2023-05-15T04:14:17.746Z,28.95
2023-05-15T04:16:19.426Z,27.13
2023-05-15T04:18:21.067Z,37.47
2023-05-15T04:20:24.734Z,32.88
2023-05-15T04:22:26.312Z,32.25
2023-05-15T04:24:28.078Z,31.67
2023-05-15T04:26:29.873Z,35.05
2023-05-15T04:28:32.492Z,34.83
2023-05-15T04:30:34.089Z,38.13
2023-05-15T04:32:36.241Z,35.55
2023-05-15T04:34:38.094Z,41.72
2023-05-15T04:36:40.852Z,41.40
2023-05-15T04:38:44.517Z,46.25
2023-05-15T04:40:47.229Z,45.97
2023-05-15T04:42:48.799Z,46.78
2023-05-15T04:44:51.223Z,49.70
2023-05-15T04:46:52.786Z,57.25
2023-05-15T04:48:54.532Z,51.83
2023-05-15T04:50:56.384Z,53.38
2023-05-15T04:52:58.067Z,48.65
2023-05-15T04:55:00.049Z,57.70
2023-05-15T04:57:02.483Z,53.90
2023-05-15T04:59:04.201Z,60.80
2023-05-15T05:01:05.862Z,52.10
2023-05-15T05:03:07.980Z,49.47
2023-05-15T05:05:10.222Z,49.20
2023-05-15T05:07:12.083Z,50.85
2023-05-15T05:09:13.741Z,47.50
2023-05-15T05:11:15.295Z,51.80
2023-05-15T05:13:16.913Z,47.83
2023-05-15T05:15:18.639Z,49.42
2023-05-15T05:17:20.734Z,48.05
2023-05-15T05:19:22.540Z,54.53
2023-05-15T05:21:24.104Z,47.05
2023-05-15T05:23:26.096Z,52.00
2023-05-15T05:25:27.833Z,48.10
2023-05-15T05:27:29.465Z,48.03
2023-05-15T05:29:31.514Z,49.88
2023-05-15T05:31:33.597Z,47.97
2023-05-15T05:33:35.898Z,47.88
2023-05-15T05:35:38.032Z,43.97
2023-05-15T05:37:41.125Z,46.47
2023-05-15T05:39:43.122Z,53.50
2023-05-15T05:41:45.378Z,47.08
2023-05-15T05:43:47.239Z,44.03
2023-05-15T05:45:49.025Z,49.15
2023-05-15T05:47:51.254Z,48.03
2023-05-15T05:49:52.862Z,45.45
2023-05-15T05:51:54.424Z,45.10
2023-05-15T05:53:56.324Z,44.80
2023-05-15T05:55:58.322Z,42.40
2023-05-15T05:58:00.145Z,39.88
2023-05-15T06:00:01.982Z,40.80
2023-05-15T06:02:04.935Z,42.35
2023-05-15T06:04:06.996Z,40.83
2023-05-15T06:06:09.201Z,40.20
2023-05-15T06:08:12.265Z,41.78
2023-05-15T06:10:14.278Z,40.80
2023-05-15T06:12:15.889Z,44.30
2023-05-15T06:14:18.196Z,43.72
2023-05-15T06:16:22.096Z,40.67
2023-05-15T06:18:24.085Z,40.95
2023-05-15T06:20:26.109Z,42.33
2023-05-15T06:22:28.095Z,41.35
2023-05-15T06:24:30.082Z,41.15
2023-05-15T06:26:31.886Z,44.35
2023-05-15T06:28:33.897Z,40.78
2023-05-15T06:30:35.698Z,42.38
2023-05-15T06:32:37.296Z,44.88
2023-05-15T06:34:38.949Z,45.92
2023-05-15T06:36:40.975Z,44.95
2023-05-15T06:38:43.315Z,46.92
2023-05-15T06:40:47.280Z,47.85
2023-05-15T06:42:49.197Z,44.75
2023-05-15T06:44:50.916Z,47.58
2023-05-15T06:46:52.585Z,46.70
2023-05-15T06:48:54.347Z,44.35
2023-05-15T06:50:56.236Z,45.05
2023-05-15T06:52:59.503Z,45.42
2023-05-15T06:55:01.423Z,41.60
2023-05-15T06:57:03.305Z,39.20
2023-05-15T06:59:05.135Z,44.90
2023-05-15T07:01:08.644Z,42.15
2023-05-15T07:03:10.320Z,38.00
2023-05-15T07:05:12.027Z,38.42
2023-05-15T07:07:13.941Z,41.15
2023-05-15T07:09:15.695Z,37.90
2023-05-15T07:11:17.434Z,37.85
2023-05-15T07:13:20.851Z,34.22
2023-05-15T07:15:23.550Z,38.30
2023-05-15T07:17:25.823Z,35.53
2023-05-15T07:19:27.531Z,36.47
2023-05-15T07:21:29.413Z,37.47
2023-05-15T07:23:31.259Z,38.60
2023-05-15T07:25:32.941Z,34.90
2023-05-15T07:27:35.316Z,42.83
2023-05-15T07:29:36.975Z,34.85
2023-05-15T07:31:40.443Z,29.20
2023-05-15T07:33:42.219Z,32.95
2023-05-15T07:35:43.856Z,31.42
2023-05-15T07:37:46.759Z,35.55
2023-05-15T07:39:48.945Z,33.92
2023-05-15T07:41:50.605Z,33.58
2023-05-15T07:43:52.244Z,34.60
2023-05-15T07:45:55.322Z,32.97
2023-05-15T07:47:58.872Z,29.63
2023-05-15T07:50:00.711Z,33.42
2023-05-15T07:52:02.635Z,33.35
2023-05-15T07:54:04.812Z,30.20
2023-05-15T07:56:06.643Z,30.08
2023-05-15T07:58:09.749Z,26.70
2023-05-15T08:00:14.138Z,29.50
2023-05-15T08:02:15.947Z,29.58
2023-05-15T08:04:17.733Z,28.90
2023-05-15T08:06:19.544Z,31.33
2023-05-15T08:08:21.107Z,25.33
2023-05-15T08:10:23.344Z,25.83
2023-05-15T08:12:26.669Z,29.73
2023-05-15T08:14:28.888Z,25.10
2023-05-15T08:16:30.974Z,30.65
2023-05-15T08:18:32.882Z,23.77
2023-05-15T08:20:34.840Z,21.33
2023-05-15T08:22:36.684Z,22.15
2023-05-15T08:24:39.164Z,28.85
2023-05-15T08:26:40.998Z,23.17
2023-05-15T08:28:42.602Z,19.42
2023-05-15T08:30:44.184Z,26.05
2023-05-15T08:32:46.791Z,19.20
2023-05-15T08:34:48.778Z,20.73
2023-05-15T08:36:50.884Z,18.77
2023-05-15T08:38:52.749Z,18.92
2023-05-15T08:40:58.776Z,16.42
2023-05-15T08:43:04.998Z,21.00
2023-05-15T08:45:07.856Z,16.92
2023-05-15T08:47:09.973Z,17.42
2023-05-15T08:49:18.646Z,17.40
2023-05-15T08:53:22.911Z,16.85
2023-05-15T08:55:25.098Z,14.05
2023-05-15T08:57:28.292Z,15.40
2023-05-15T08:59:31.276Z,12.32
2023-05-15T09:01:34.349Z,17.27
2023-05-15T09:03:36.448Z,14.95
2023-05-15T09:05:40.045Z,15.73
2023-05-15T09:07:42.996Z,16.98
2023-05-15T09:09:45.636Z,15.63
2023-05-15T09:11:48.774Z,17.85
2023-05-15T09:13:50.764Z,21.17
2023-05-15T09:15:52.469Z,15.15
2023-05-15T09:17:55.437Z,14.05
2023-05-15T09:19:58.497Z,16.48
2023-05-15T09:22:24.418Z,21.70
2023-05-15T09:24:28.243Z,17.05
2023-05-15T09:26:29.906Z,17.13
2023-05-15T09:28:33.458Z,27.45
2023-05-15T09:30:38.517Z,19.98
2023-05-15T09:32:40.512Z,17.05
2023-05-15T09:34:44.129Z,16.50
2023-05-15T09:36:45.724Z,22.15
2023-05-15T09:38:49.012Z,18.90
2023-05-15T09:40:50.760Z,19.55
2023-05-15T09:42:52.892Z,18.25
2023-05-15T09:44:54.487Z,18.17
2023-05-15T09:46:56.238Z,20.50
2023-05-15T09:48:59.583Z,18.80
2023-05-15T09:51:02.524Z,18.40
2023-05-15T09:53:05.385Z,19.73
2023-05-15T09:55:08.214Z,18.27
2023-05-15T09:57:15.361Z,17.77
2023-05-15T09:59:20.093Z,17.95
2023-05-15T10:01:23.623Z,20.80
2023-05-15T10:03:25.134Z,17.50
2023-05-15T10:05:41.965Z,20.15
2023-05-15T10:07:44.831Z,15.65
2023-05-15T10:09:46.299Z,22.27
2023-05-15T10:11:53.198Z,16.83
2023-05-15T10:13:54.838Z,18.67
2023-05-15T10:15:58.454Z,17.25
2023-05-15T10:18:00.767Z,16.17
2023-05-15T10:20:02.783Z,16.25
2023-05-15T10:22:05.211Z,14.80
2023-05-15T10:24:08.054Z,17.08
2023-05-15T10:26:32.663Z,17.38
2023-05-15T10:28:36.164Z,19.45
2023-05-15T10:30:38.963Z,20.13
2023-05-15T10:32:42.168Z,22.65
2023-05-15T10:34:44.111Z,17.42
2023-05-15T10:36:46.454Z,15.98
2023-05-15T10:38:49.024Z,18.50
2023-05-15T10:40:57.600Z,18.35
2023-05-15T10:43:05.199Z,16.45
2023-05-15T10:45:08.773Z,17.25
2023-05-15T10:47:10.887Z,15.55
2023-05-15T10:49:12.563Z,17.42
2023-05-15T10:51:18.172Z,18.38
2023-05-15T10:53:20.810Z,15.43
2023-05-15T10:55:23.215Z,20.77
2023-05-15T10:57:24.850Z,24.00
2023-05-15T10:59:33.891Z,15.13
2023-05-15T11:01:40.061Z,12.48
2023-05-15T11:03:49.489Z,14.52
2023-05-15T11:06:15.748Z,12.35
2023-05-15T11:08:21.607Z,15.93
2023-05-15T11:10:36.617Z,12.90
2023-05-15T11:12:58.430Z,15.88
2023-05-15T11:14:59.910Z,12.93
2023-05-15T11:17:06.870Z,15.50
2023-05-15T11:19:23.761Z,15.00
2023-05-15T11:21:25.804Z,14.80
2023-05-15T11:23:27.308Z,12.20
2023-05-15T11:25:33.687Z,11.63
2023-05-15T11:27:40.157Z,12.55
2023-05-15T11:30:10.074Z,8.18
2023-05-15T11:32:33.147Z,8.32
2023-05-15T11:34:35.118Z,9.75
2023-05-15T11:36:43.648Z,8.18
2023-05-15T11:38:50.908Z,8.32
2023-05-15T11:40:58.418Z,10.52
2023-05-15T11:43:23.496Z,8.55
2023-05-15T11:45:25.185Z,12.07
2023-05-15T11:47:29.632Z,8.65
2023-05-15T11:49:31.249Z,26.38
2023-05-15T11:51:33.810Z,9.27
2023-05-15T11:53:35.816Z,10.63
2023-05-15T11:55:39.112Z,8.73
2023-05-15T11:57:40.567Z,10.70
2023-05-15T11:59:42.050Z,16.60
2023-05-15T12:01:47.665Z,9.40
2023-05-15T12:03:50.288Z,47.38
2023-05-15T12:05:58.362Z,67.13
2023-05-15T12:08:01.521Z,205.93
2023-05-15T12:10:03.431Z,16.15
2023-05-15T12:12:06.324Z,8.32
2023-05-15T12:14:12.644Z,7.35
2023-05-15T12:16:14.121Z,9.27
2023-05-15T12:18:15.647Z,10.63
2023-05-15T12:20:18.916Z,10.05
2023-05-15T12:22:21.944Z,13.43
2023-05-15T12:24:23.401Z,13.27
2023-05-15T12:26:26.179Z,8.48
2023-05-15T12:28:29.478Z,7.88
2023-05-15T12:30:32.305Z,11.43
2023-05-15T12:32:35.487Z,9.63
2023-05-15T12:34:37.154Z,12.55
2023-05-15T12:36:41.472Z,9.57
2023-05-15T12:38:43.023Z,9.68
2023-05-15T12:40:46.551Z,11.15
2023-05-15T12:42:56.259Z,8.85
2023-05-15T12:44:57.810Z,8.82
2023-05-15T12:46:59.330Z,12.30
2023-05-15T12:49:01.345Z,7.57
2023-05-15T12:51:07.638Z,9.90
2023-05-15T12:53:09.409Z,9.32
2023-05-15T12:55:16.623Z,16.00
2023-05-15T12:57:18.128Z,11.20
2023-05-15T12:59:19.653Z,9.95
2023-05-15T13:01:21.659Z,12.77
2023-05-15T13:03:25.129Z,14.00
2023-05-15T13:05:27.804Z,12.07
2023-05-15T13:07:30.017Z,8.00
2023-05-15T13:09:33.225Z,7.97
2023-05-15T13:11:34.681Z,9.27
2023-05-15T13:13:47.539Z,8.77
2023-05-15T13:15:49.102Z,9.55
2023-05-15T13:17:56.532Z,9.57
2023-05-15T13:19:58.090Z,12.82
2023-05-15T13:22:00.416Z,9.30
2023-05-15T13:24:02.259Z,10.45
2023-05-15T13:26:03.735Z,14.30
2023-05-15T13:28:06.560Z,8.80
2023-05-15T13:30:08.618Z,10.25
2023-05-15T13:32:10.089Z,9.45
2023-05-15T13:34:11.550Z,11.35
2023-05-15T13:36:13.446Z,11.60
2023-05-15T13:38:15.237Z,12.63
2023-05-15T13:40:16.723Z,9.13
2023-05-15T13:42:18.260Z,102.60
2023-05-15T13:44:19.777Z,10.38
2023-05-15T13:46:21.539Z,14.07
2023-05-15T13:48:23.179Z,11.43
2023-05-15T13:50:24.980Z,7.65
2023-05-15T13:52:27.146Z,8.73
2023-05-15T13:54:28.603Z,9.35
2023-05-15T13:56:30.186Z,7.22
2023-05-15T13:58:31.684Z,10.43
2023-05-15T14:00:33.218Z,13.18
2023-05-15T14:02:34.848Z,7.38
2023-05-15T14:04:37.038Z,9.05
2023-05-15T14:06:38.513Z,8.00
2023-05-15T14:08:39.998Z,7.20
2023-05-15T14:10:41.463Z,12.07
2023-05-15T14:12:43.534Z,7.88
2023-05-15T14:14:46.988Z,11.40
2023-05-15T14:16:48.545Z,5.85
2023-05-15T14:18:50.122Z,5.95
2023-05-15T14:20:52.448Z,7.53
2023-05-15T14:22:53.933Z,7.53
2023-05-15T14:24:55.491Z,6.50
2023-05-15T14:26:56.995Z,5.13
2023-05-15T14:28:58.818Z,8.52
2023-05-15T14:31:00.377Z,4.50
2023-05-15T14:33:01.881Z,5.13
2023-05-15T14:35:03.619Z,6.25
2023-05-15T14:37:05.217Z,7.13
2023-05-15T14:39:06.715Z,12.48
2023-05-15T14:41:08.200Z,6.22
2023-05-15T14:43:10.103Z,7.45
2023-05-15T14:45:11.741Z,9.50
2023-05-15T14:47:13.567Z,5.43
2023-05-15T14:49:15.048Z,15.13
2023-05-15T14:51:18.408Z,6.88
2023-05-15T14:53:21.303Z,6.70
2023-05-15T14:55:22.893Z,10.15
2023-05-15T14:57:24.470Z,5.53
2023-05-15T14:59:28.350Z,5.05
2023-05-15T15:01:29.895Z,8.82
2023-05-15T15:03:33.298Z,4.00
2023-05-15T15:05:35.575Z,11.80
2023-05-15T15:08:02.228Z,7.05
2023-05-15T15:10:04.106Z,7.38
2023-05-15T15:12:06.430Z,6.60
2023-05-15T15:14:07.912Z,8.77
2023-05-15T15:16:10.175Z,11.85
2023-05-15T15:18:11.756Z,7.50
2023-05-15T15:20:15.040Z,11.27
2023-05-15T15:22:16.545Z,3.92
2023-05-15T15:24:18.035Z,8.68
2023-05-15T15:26:19.676Z,6.60
2023-05-15T15:28:21.172Z,5.22
2023-05-15T15:30:22.751Z,14.27
2023-05-15T15:32:24.517Z,4.47
2023-05-15T15:34:26.834Z,5.88
2023-05-15T15:36:28.286Z,3.65
2023-05-15T15:38:29.747Z,9.25
2023-05-15T15:40:31.769Z,9.93
2023-05-15T15:42:34.142Z,10.48
2023-05-15T15:44:35.951Z,4.47
2023-05-15T15:46:38.530Z,4.20
2023-05-15T15:48:40.074Z,6.85
2023-05-15T15:50:41.565Z,13.20
2023-05-15T15:52:43.036Z,5.03
2023-05-15T15:54:47.139Z,7.30
2023-05-15T15:56:48.896Z,13.07
2023-05-15T15:58:50.476Z,3.95
2023-05-15T16:00:51.997Z,4.22
2023-05-15T16:02:53.586Z,8.07
2023-05-15T16:04:55.157Z,5.07
2023-05-15T16:06:56.746Z,4.80
2023-05-15T16:08:58.261Z,9.07
2023-05-15T16:10:59.818Z,3.58
2023-05-15T16:13:01.270Z,7.43
2023-05-15T16:15:20.932Z,6.65
2023-05-15T16:17:23.686Z,3.53
2023-05-15T16:19:25.315Z,3.95
2023-05-15T16:21:26.787Z,4.28
2023-05-15T16:23:28.249Z,4.00
2023-05-15T16:25:29.733Z,8.55
2023-05-15T16:27:31.316Z,9.95
2023-05-15T16:29:32.792Z,17.15
2023-05-15T16:31:34.879Z,10.23
2023-05-15T16:33:36.613Z,5.03
2023-05-15T16:35:38.364Z,5.40
2023-05-15T16:37:40.010Z,6.30
2023-05-15T16:39:41.512Z,8.18
2023-05-15T16:41:43.102Z,5.78
2023-05-15T16:43:44.611Z,7.20
2023-05-15T16:45:46.205Z,8.23
2023-05-15T16:47:47.813Z,7.90
2023-05-15T16:49:50.306Z,7.45
2023-05-15T16:51:52.856Z,4.95
2023-05-15T16:53:56.226Z,5.50
2023-05-15T16:55:57.730Z,5.57
2023-05-15T16:57:59.230Z,4.93
2023-05-15T17:00:00.756Z,7.40
2023-05-15T17:02:02.425Z,14.50
2023-05-15T17:04:04.153Z,6.43
2023-05-15T17:06:05.883Z,12.02
2023-05-15T17:08:07.655Z,7.55
2023-05-15T17:10:10.546Z,8.52
2023-05-15T17:12:12.104Z,4.88
2023-05-15T17:14:13.585Z,11.27
2023-05-15T17:16:15.142Z,16.52
2023-05-15T17:18:16.760Z,6.13
2023-05-15T17:20:18.419Z,7.85
2023-05-15T17:22:21.218Z,5.18
2023-05-15T17:24:22.679Z,5.53
2023-05-15T17:26:24.194Z,7.82
2023-05-15T17:28:25.638Z,11.50
2023-05-15T17:30:27.210Z,10.65
2023-05-15T17:32:28.917Z,21.02
2023-05-15T17:34:30.475Z,6.60
2023-05-15T17:36:32.297Z,5.53
2023-05-15T17:38:33.805Z,8.80
2023-05-15T17:40:35.335Z,5.95
2023-05-15T17:42:36.832Z,5.65
2023-05-15T17:44:38.308Z,6.25
2023-05-15T17:46:39.767Z,6.18
2023-05-15T17:48:41.225Z,8.25
2023-05-15T17:50:42.727Z,4.90
2023-05-15T17:52:44.295Z,6.72
2023-05-15T17:54:45.865Z,6.95
2023-05-15T17:56:48.044Z,5.20
2023-05-15T17:58:49.583Z,7.22
2023-05-15T18:00:51.686Z,6.53
2023-05-15T18:02:53.810Z,11.77
2023-05-15T18:04:56.172Z,5.05
2023-05-15T18:06:57.708Z,8.65
2023-05-15T18:08:59.222Z,8.00
2023-05-15T18:11:04.204Z,6.90
2023-05-15T18:13:13.111Z,6.22
2023-05-15T18:15:14.729Z,4.93
2023-05-15T18:17:16.382Z,5.10
2023-05-15T18:19:18.223Z,6.60
2023-05-15T18:21:20.006Z,6.45
2023-05-15T18:23:21.541Z,4.63
2023-05-15T18:25:23.225Z,6.22
2023-05-15T18:27:24.739Z,3.90
2023-05-15T18:29:26.489Z,9.48
2023-05-15T18:31:27.993Z,3.60
2023-05-15T18:33:29.561Z,6.78
2023-05-15T18:35:31.037Z,3.05
2023-05-15T18:37:34.023Z,3.90
2023-05-15T18:39:37.548Z,2.90
2023-05-15T18:41:39.003Z,4.28
2023-05-15T18:43:40.517Z,3.75
2023-05-15T18:45:42.001Z,3.22
2023-05-15T18:47:43.545Z,5.70
2023-05-15T18:49:45.519Z,4.25
2023-05-15T18:51:46.986Z,6.35
2023-05-15T18:53:48.413Z,4.82
2023-05-15T18:55:49.896Z,3.45
2023-05-15T18:57:51.730Z,3.92
2023-05-15T18:59:54.461Z,3.40
2023-05-15T19:01:56.044Z,4.63
2023-05-15T19:03:57.798Z,3.20
2023-05-15T19:05:59.370Z,3.00
2023-05-15T19:08:01.154Z,3.88
2023-05-15T19:10:03.629Z,4.80
2023-05-15T19:12:05.483Z,3.63
2023-05-15T19:14:06.977Z,11.73
2023-05-15T19:16:10.271Z,4.40
2023-05-15T19:18:11.822Z,4.50
2023-05-15T19:20:13.401Z,5.93
2023-05-15T19:22:14.971Z,5.55
2023-05-15T19:24:16.485Z,5.22
2023-05-15T19:26:18.097Z,6.28
2023-05-15T19:28:19.736Z,6.70
2023-05-15T19:30:21.399Z,8.80
2023-05-15T19:32:22.971Z,6.47
2023-05-15T19:34:24.638Z,5.78
2023-05-15T19:36:26.242Z,6.45
2023-05-15T19:38:28.006Z,7.72
2023-05-15T19:40:29.582Z,8.38
2023-05-15T19:42:31.108Z,6.72
2023-05-15T19:44:32.637Z,8.30
2023-05-15T19:46:34.739Z,8.90
2023-05-15T19:48:36.434Z,6.72
2023-05-15T19:50:39.585Z,9.70
2023-05-15T19:52:42.418Z,11.68
2023-05-15T19:54:45.555Z,7.68
2023-05-15T19:56:47.077Z,7.95
2023-05-15T19:58:48.598Z,7.80
2023-05-15T20:00:52.634Z,7.47
2023-05-15T20:02:54.226Z,6.45
2023-05-15T20:04:55.815Z,7.90
2023-05-15T20:06:57.304Z,8.50
2023-05-15T20:08:59.313Z,9.25
2023-05-15T20:11:01.228Z,8.77
2023-05-15T20:13:03.069Z,8.77
2023-05-15T20:15:05.102Z,10.85
2023-05-15T20:17:07.067Z,14.18
2023-05-15T20:19:11.014Z,10.93
2023-05-15T20:21:12.810Z,9.05
2023-05-15T20:23:14.281Z,10.15
2023-05-15T20:25:15.817Z,6.90
2023-05-15T20:27:17.254Z,7.95
2023-05-15T20:29:18.732Z,9.70
2023-05-15T20:31:20.341Z,5.15
2023-05-15T20:35:24.485Z,4.75
2023-05-15T20:37:30.296Z,4.70
2023-05-15T20:39:32.002Z,2.17
2023-05-15T20:41:34.145Z,3.78
2023-05-15T20:43:35.635Z,5.32
2023-05-15T20:45:37.214Z,7.97
2023-05-15T20:47:38.768Z,6.65
2023-05-15T20:49:40.367Z,3.75
2023-05-15T20:51:44.439Z,3.80
2023-05-15T20:53:45.889Z,2.63
2023-05-15T20:55:47.457Z,2.05
2023-05-15T20:57:50.292Z,3.75
2023-05-15T20:59:51.795Z,3.45
2023-05-15T21:01:53.321Z,1.80
2023-05-15T21:03:54.876Z,5.10
2023-05-15T21:05:57.480Z,2.75
2023-05-15T21:07:59.367Z,5.82
2023-05-15T21:10:00.915Z,4.32
2023-05-15T21:12:04.069Z,3.45
2023-05-15T21:14:06.397Z,5.70
2023-05-15T21:16:07.939Z,4.90
2023-05-15T21:18:09.536Z,2.10
2023-05-15T21:20:11.925Z,5.38
2023-05-15T21:22:13.651Z,4.38
2023-05-15T21:24:16.339Z,7.80
2023-05-15T21:26:17.839Z,5.53
2023-05-15T21:28:19.340Z,2.25
2023-05-15T21:30:21.073Z,3.65
2023-05-15T21:32:23.375Z,7.70
2023-05-15T21:34:25.232Z,3.08
2023-05-15T21:36:26.801Z,2.28
2023-05-15T21:38:29.410Z,6.13
2023-05-15T21:40:30.927Z,3.55
2023-05-15T21:42:32.519Z,3.63
2023-05-15T21:44:34.834Z,4.28
2023-05-15T21:46:36.377Z,3.97
2023-05-15T21:48:37.963Z,4.28
2023-05-15T21:50:39.994Z,5.40
2023-05-15T21:52:41.901Z,6.22
2023-05-15T21:54:44.457Z,5.65
2023-05-15T21:56:45.983Z,7.85
2023-05-15T21:58:47.781Z,3.33
2023-05-15T22:00:49.346Z,2.30
2023-05-15T22:02:50.957Z,2.45
2023-05-15T22:04:52.515Z,2.50
2023-05-15T22:06:54.128Z,2.72
2023-05-15T22:08:55.815Z,4.03
2023-05-15T22:10:57.295Z,2.75
2023-05-15T22:12:59.105Z,3.15
2023-05-15T22:15:01.162Z,2.97
2023-05-15T22:17:02.659Z,4.57
2023-05-15T22:19:04.251Z,5.63
2023-05-15T22:21:06.353Z,1.58
2023-05-15T22:23:07.901Z,1.80
2023-05-15T22:25:09.714Z,1.65
2023-05-15T22:27:11.235Z,3.47
2023-05-15T22:29:12.915Z,2.60
2023-05-15T22:31:14.426Z,4.28
2023-05-15T22:33:16.110Z,3.30
2023-05-15T22:35:18.613Z,3.20
2023-05-15T22:37:20.144Z,3.75
2023-05-15T22:39:21.722Z,5.78
2023-05-15T22:41:23.218Z,5.97
2023-05-15T22:43:24.914Z,3.58
2023-05-15T22:45:26.444Z,3.78
2023-05-15T22:47:31.003Z,4.97
2023-05-15T22:49:32.494Z,2.20
2023-05-15T22:51:34.406Z,6.68
2023-05-15T22:53:36.345Z,4.18
2023-05-15T22:55:37.827Z,9.38
2023-05-15T22:57:39.376Z,2.40
2023-05-15T22:59:40.978Z,4.55
2023-05-15T23:01:43.929Z,4.32
2023-05-15T23:03:46.267Z,6.68
2023-05-15T23:05:47.887Z,6.50
2023-05-15T23:07:49.348Z,4.22
2023-05-15T23:09:51.398Z,4.55
2023-05-15T23:11:52.875Z,6.78
2023-05-15T23:13:54.449Z,3.65
2023-05-15T23:15:56.005Z,2.45
2023-05-15T23:17:57.639Z,6.30
2023-05-15T23:19:59.159Z,4.50
2023-05-15T23:22:00.815Z,3.90
2023-05-15T23:24:02.365Z,3.75
2023-05-15T23:26:03.835Z,3.05
2023-05-15T23:28:05.369Z,4.45
2023-05-15T23:30:07.814Z,7.50
2023-05-15T23:32:09.352Z,5.05
2023-05-15T23:34:11.115Z,4.32
2023-05-15T23:36:12.586Z,12.13
2023-05-15T23:38:14.106Z,7.10
2023-05-15T23:40:15.802Z,4.28
2023-05-15T23:42:17.260Z,4.78
2023-05-15T23:44:18.908Z,4.22
2023-05-15T23:46:20.464Z,4.18
2023-05-15T23:48:21.990Z,5.47
2023-05-15T23:50:23.581Z,6.22
2023-05-15T23:52:25.185Z,2.10
2023-05-15T23:54:26.700Z,12.68
2023-05-15T23:56:28.263Z,5.10
2023-05-15T23:58:29.818Z,3.53
